2 lipca 2022

Czas Kod Pogoda Temp. Widoczność Sufit Wiatr METAR/SPECI
9:25 am
V
64 °F 6¼ mi+ 4.800 ft Var Var 7 kt METAR EHDL 020725Z AUTO VRB07KT 9999 BKN048 BKN064 18/10 Q1022 BLU
8:55 am
V
61 °F 6¼ mi+ 6.400 ft 190° 190° 5 kt METAR EHDL 020655Z AUTO 19005KT 130V250 9999 FEW058 BKN064 16/10 Q1022 BLU
8:25 am
V
59 °F 6¼ mi+ 4.700 ft 180° 180° 5 kt METAR EHDL 020625Z AUTO 18005KT 120V220 9999 BKN047 OVC058 15/11 Q1022 BLU
7:55 am
V
59 °F 6¼ mi+ 5.600 ft 190° 190° 5 kt METAR EHDL 020555Z AUTO 19005KT 130V240 9999 SCT050 OVC056 15/11 Q1022 BLU
7:25 am
V
59 °F 6¼ mi+ 4.700 ft 190° 190° 5 kt METAR EHDL 020525Z AUTO 19005KT 120V230 9999 OVC047 15/11 Q1021 BLU
6:55 am
V
57 °F 6¼ mi+ 5.000 ft 180° 180° 5 kt METAR EHDL 020455Z AUTO 18005KT 110V230 9999 FEW046 BKN050 OVC063 14/11 Q1021 BLU
6:25 am
V
54 °F 6¼ mi+ 4.800 ft 170° 170° 4 kt METAR EHDL 020425Z AUTO 17004KT 110V180 9999 BKN048 12/10 Q1021 BLU
5:55 am
V
54 °F 6¼ mi+ - 140° 140° 3 kt METAR EHDL 020355Z AUTO 14003KT 100V180 9999 FEW049 SCT053 12/10 Q1021 BLU
5:25 am
V
52 °F 6¼ mi+ - 190° 190° 2 kt METAR EHDL 020325Z AUTO 19002KT 9999 NCD 11/10 Q1021 BLU
4:55 am
V
52 °F 6¼ mi+ - 160° 160° 2 kt METAR EHDL 020255Z AUTO 16002KT 9999 NCD 11/10 Q1021 BLU
4:25 am
V
52 °F 6¼ mi+ - Var Var 2 kt METAR EHDL 020225Z AUTO VRB02KT 9999 NCD 11/10 Q1021 BLU
3:55 am
V
52 °F 6¼ mi+ - Var Var 1 kt METAR EHDL 020155Z AUTO VRB01KT 9999 NCD 11/10 Q1021 BLU
3:25 am
V
54 °F 6¼ mi+ - Var Var 2 kt METAR EHDL 020125Z AUTO VRB02KT 9999 NCD 12/10 Q1021 BLU
2:55 am
V
54 °F 6¼ mi+ - Var Var 1 kt METAR EHDL 020055Z AUTO VRB01KT 9999 NCD 12/10 Q1021 BLU
2:25 am
V
52 °F 6¼ mi+ - 110° 110° 4 kt METAR EHDL 020025Z AUTO 11004KT 080V180 9999 NCD 11/10 Q1021 BLU RMK CB INFO NOT AVBL
1:55 am
V
52 °F 6¼ mi+ - 110° 110° 3 kt METAR EHDL 012355Z AUTO 11003KT 110V180 9999 NCD 11/09 Q1021 BLU
1:25 am
V
54 °F 6¼ mi+ - Var Var 2 kt METAR EHDL 012325Z AUTO VRB02KT 9999 NCD 12/10 Q1021 BLU
12:55 am
V
52 °F 6¼ mi+ - 110° 110° 3 kt METAR EHDL 012255Z AUTO 11003KT 100V170 9999 NCD 11/10 Q1021 BLU
12:25 am
V
52 °F 6¼ mi+ - Var Var 2 kt METAR EHDL 012225Z AUTO VRB02KT 9999 NCD 11/10 Q1021 BLU

1 lipca 2022

Czas Kod Pogoda Temp. Widoczność Sufit Wiatr METAR/SPECI
11:55 pm
V
54 °F 6¼ mi+ - Var Var 2 kt METAR EHDL 012155Z AUTO VRB02KT 9999 NCD 12/11 Q1021 BLU
11:25 pm
V
55 °F 6¼ mi+ - 140° 140° 2 kt METAR EHDL 012125Z AUTO 14002KT 9999 NCD 13/11 Q1021 BLU
10:55 pm
V
55 °F 6¼ mi+ - 160° 160° 1 kt METAR EHDL 012055Z AUTO 16001KT 9999 NCD 13/11 Q1021 BLU
10:25 pm
V
59 °F 6¼ mi+ - 210° 210° 2 kt METAR EHDL 012025Z AUTO 21002KT 9999 NCD 15/11 Q1020 BLU
9:55 pm
V
61 °F 6¼ mi+ - 210° 210° 4 kt METAR EHDL 011955Z AUTO 21004KT 180V250 9999 NCD 16/11 Q1020 BLU
9:25 pm
V
63 °F 6¼ mi+ - 230° 230° 7 kt METAR EHDL 011925Z AUTO 23007KT 170V270 9999 FEW071 17/10 Q1019 BLU
8:55 pm
V
64 °F 6¼ mi+ 8.200 ft 230° 230° 5 kt METAR EHDL 011855Z AUTO 23005KT 160V290 9999 SCT075 OVC082 18/11 Q1019 BLU
8:25 pm
V
63 °F 6¼ mi+ - 250° 250° 7 kt METAR EHDL 011825Z AUTO 25007KT 190V300 9999 FEW079 17/10 Q1019 BLU
7:55 pm
V
66 °F 6¼ mi+ 7.800 ft 240° 240° 9 kt METAR EHDL 011755Z AUTO 24009KT 180V310 9999 SCT072 BKN078 BKN084 19/09 Q1019 BLU
7:25 pm
V
68 °F 6¼ mi+ 7.400 ft 220° 220° 8 kt METAR EHDL 011725Z AUTO 22008KT 180V300 9999 BKN074 BKN082 20/11 Q1019 BLU
6:55 pm
V
64 °F 6¼ mi+ 6.200 ft 240° 240° 8 kt METAR EHDL 011655Z AUTO 24008KT 170V310 9999 BKN062 BKN070 OVC076 18/11 Q1019 BLU
6:25 pm
V
64 °F 6¼ mi+ 8.200 ft 240° 240° 11 kt METAR EHDL 011625Z AUTO 24011KT 180V300 9999 SCT070 OVC082 18/10 Q1019 BLU
5:55 pm
V
64 °F 6¼ mi+ 5.700 ft 250° 250° 8 kt METAR EHDL 011555Z AUTO 25008KT 180V310 9999 BKN057 OVC062 18/10 Q1019 BLU
5:25 pm
V
66 °F 6¼ mi+ 6.200 ft 260° 260° 10 kt METAR EHDL 011525Z AUTO 26010KT 200V330 9999 BKN062 OVC067 19/10 Q1018 BLU
4:55 pm
V
66 °F 6¼ mi+ 6.300 ft 250° 250° 10 kt METAR EHDL 011455Z AUTO 25010KT 220V320 9999 FEW042 SCT046 BKN063 19/10 Q1018 BLU
4:25 pm
V
68 °F 6¼ mi+ - 240° 240° 11 kt METAR EHDL 011425Z AUTO 24011KT 180V310 9999 FEW047 SCT087 20/09 Q1018 BLU
3:55 pm
V
70 °F 6¼ mi+ - 210° 210° 12 kt METAR EHDL 011355Z AUTO 21012KT 150V310 9999 FEW049 SCT059 21/08 Q1018 BLU
3:25 pm
V
68 °F 6¼ mi+ 5.300 ft 230° 230° 12 kt METAR EHDL 011325Z AUTO 23012KT 150V290 9999 SCT043 SCT049 BKN053 20/09 Q1017 BLU
2:55 pm
V
70 °F 6¼ mi+ - 230° 230° 11 kt METAR EHDL 011255Z AUTO 23011KT 170V300 9999 SCT044 SCT051 21/10 Q1017 BLU
2:25 pm
V
68 °F 6¼ mi+ - 240° 240° 12 kt METAR EHDL 011225Z AUTO 24012KT 150V310 9999 FEW043 20/09 Q1017 BLU
1:55 pm
V
70 °F 6¼ mi+ - 220° 220° 13 kt METAR EHDL 011155Z AUTO 22013KT 120V280 9999 FEW043 21/09 Q1017 BLU
1:25 pm
V
68 °F 6¼ mi+ 4.500 ft 220° 220° 13 kt METAR EHDL 011125Z AUTO 22013KT 160V300 9999 FEW039 BKN045 BKN052 20/10 Q1017 BLU
12:55 pm
V
66 °F 6¼ mi+ 23.000 ft 240° 240° 10 kt METAR EHDL 011055Z AUTO 24010KT 140V310 9999 FEW037 OVC230 19/09 Q1017 BLU
12:25 pm
V
64 °F 6¼ mi+ 22.000 ft 230° 230° 8 kt METAR EHDL 011025Z AUTO 23008KT 150V270 9999 SCT033 SCT047 OVC220 18/10 Q1017 BLU
11:55 am
V
66 °F 6¼ mi+ 23.000 ft 210° 210° 12 kt METAR EHDL 010955Z AUTO 21012KT 150V290 9999 SCT030 SCT035 BKN230 19/11 Q1017 BLU
11:25 am
M
64 °F 6¼ mi+ 2.200 ft 230° 230° 8 kt METAR EHDL 010925Z AUTO 23008KT 170V290 9999 BKN022 BKN025 BKN030 18/11 Q1017 WHT
10:55 am
M
63 °F 6¼ mi+ 2.000 ft 220° 220° 11 kt METAR EHDL 010855Z AUTO 22011KT 160V310 9999 SCT017 BKN020 BKN027 17/12 Q1017 WHT
10:25 am
V
61 °F 6¼ mi+ 20.000 ft 220° 220° 9 kt METAR EHDL 010825Z AUTO 22009KT 130V290 9999 FEW016 SCT021 OVC200 16/12 Q1016 WHT
9:55 am
M
61 °F 6¼ mi+ 1.300 ft 210° 210° 9 kt METAR EHDL 010755Z AUTO 21009KT 140V270 9999 SCT010 BKN013 BKN016 16/13 Q1016 GRN
9:25 am
I
59 °F 5 mi 900 ft 210° 210° 7 kt METAR EHDL 010725Z AUTO 21007KT 130V270 8000 BR FEW007 BKN009 OVC010 15/13 Q1016 GRN
8:55 am
I
57 °F 4⅜ mi 800 ft Var Var 6 kt METAR EHDL 010655Z AUTO VRB06KT 7000 BR FEW007 BKN008 OVC009 14/12 Q1016 GRN
8:25 am
M
57 °F 3¾ mi 15.000 ft 220° 220° 8 kt METAR EHDL 010625Z AUTO 22008KT 160V270 6000 BR FEW012 OVC150 14/12 Q1016 WHT
7:55 am
M
55 °F 3⅛ mi 17.000 ft 210° 210° 7 kt METAR EHDL 010555Z AUTO 21007KT 150V260 5000 BR FEW008 OVC170 13/12 Q1016 WHT
7:25 am
M
55 °F 3⅛ mi 19.000 ft 210° 210° 8 kt METAR EHDL 010525Z AUTO 21008KT 150V270 5000 BR OVC190 13/12 Q1016 WHT
6:55 am
I
55 °F 2⅜ mi 700 ft 200° 200° 6 kt METAR EHDL 010455Z AUTO 20006KT 140V250 3800 BR SCT005 BKN007 BKN008 13/12 Q1016 YLO
6:25 am
I
55 °F 2 mi 16.000 ft 210° 210° 5 kt METAR EHDL 010425Z AUTO 21005KT 110V250 3300 BR FEW007 SCT008 OVC160 13/12 Q1015 YLO
5:55 am
I
54 °F 2 mi 18.000 ft 200° 200° 6 kt METAR EHDL 010355Z AUTO 20006KT 140V250 3200 BR FEW004 OVC180 12/12 Q1015 YLO
5:25 am
I
55 °F 2⅝ mi 800 ft 230° 230° 5 kt METAR EHDL 010325Z AUTO 23005KT 180V270 4200 BR FEW006 BKN008 BKN010 13/12 Q1015 GRN
4:55 am
I
55 °F 2⅛ mi 800 ft 220° 220° 5 kt METAR EHDL 010255Z AUTO 22005KT 150V270 3400 BR FEW006 SCT007 BKN008 13/12 Q1015 YLO
4:25 am
I
55 °F 3⅛ mi 900 ft 240° 240° 7 kt METAR EHDL 010225Z AUTO 24007KT 180V300 5000 BR FEW007 BKN009 BKN010 13/12 Q1015 GRN
3:55 am
I
55 °F 2¾ mi 1.300 ft 230° 230° 6 kt METAR EHDL 010155Z AUTO 23006KT 170V280 4400 BR FEW005 SCT007 OVC013 13/13 Q1015 GRN
3:25 am
I
55 °F 3 mi 1.200 ft 230° 230° 5 kt METAR EHDL 010125Z AUTO 23005KT 170V280 4900 BR FEW003 BKN012 OVC160 13/13 Q1014 GRN
2:55 am
M
55 °F 3¾ mi 19.000 ft 230° 230° 3 kt METAR EHDL 010055Z AUTO 23003KT 190V270 6000 BR OVC190 13/12 Q1014 WHT
2:25 am
M
55 °F 4⅜ mi 9.500 ft 240° 240° 4 kt METAR EHDL 010025Z AUTO 24004KT 200V270 7000 BR BKN095 OVC100 13/13 Q1014 WHT
1:55 am
I
57 °F 5⅝ mi 800 ft 240° 240° 6 kt METAR EHDL 302355Z AUTO 24006KT 190V280 9000 BR FEW003 SCT006 BKN008 14/13 Q1015 YLO
1:25 am
I
57 °F 6¼ mi+ 700 ft 240° 240° 7 kt METAR EHDL 302325Z AUTO 24007KT 200V290 9999 FEW003 SCT006 BKN007 14/13 Q1014 YLO
12:55 am
I
57 °F 6¼ mi+ 600 ft 240° 240° 5 kt METAR EHDL 302255Z AUTO 24005KT 190V280 9999 FEW004 BKN006 BKN008 14/13 Q1014 YLO
12:25 am
I
57 °F 6¼ mi+ 500 ft 240° 240° 4 kt METAR EHDL 302225Z AUTO 24004KT 160V320 9999 FEW003 BKN005 OVC006 14/13 Q1014 YLO

30 czerwca 2022

Czas Kod Pogoda Temp. Widoczność Sufit Wiatr METAR/SPECI
11:55 pm
I
55 °F 6¼ mi+ 800 ft 230° 230° 5 kt METAR EHDL 302155Z AUTO 23005KT 170V280 9999 SCT007 BKN008 OVC010 13/13 Q1014 GRN
11:25 pm
V
55 °F 6¼ mi+ 3.500 ft 290° 290° 4 kt METAR EHDL 302125Z AUTO 29004KT 230V360 9999 -SHRA FEW006 SCT015CB BKN035 13/13 Q1013 WHT
10:55 pm
V
57 °F 6¼ mi+ 4.700 ft Var Var 2 kt METAR EHDL 302055Z AUTO VRB02KT 9999 FEW004 FEW015CB OVC047 14/13 Q1013 BLU
10:25 pm
V
57 °F 6¼ mi+ 4.400 ft 290° 290° 5 kt METAR EHDL 302025Z AUTO 29005KT 240V020 9999 FEW015CB OVC044 14/13 Q1012 BLU
9:55 pm
V
55 °F 6¼ mi+ 4.200 ft 280° 280° 7 kt METAR EHDL 301955Z AUTO 28007KT 230V010 9999 -RA SCT015CB OVC042 13/13 Q1013 RERA WHT
9:25 pm
V
57 °F 6¼ mi+ 8.000 ft 280° 280° 9 kt METAR EHDL 301925Z AUTO 28009KT 230V350 9999 -RADZ FEW015CB BKN080 BKN085 OVC093 14/13 Q1012 BLU
8:55 pm
V
57 °F 6¼ mi+ 8.600 ft 300° 300° 13 kt METAR EHDL 301855Z AUTO 30013KT 230V020 9999 FEW008 OVC086 14/13 Q1011 RETS BLU
8:25 pm
V
59 °F 6¼ mi+ 4.200 ft 280° 280° 12 kt METAR EHDL 301825Z AUTO 28012KT 220V020 9999 -TSRA FEW007 SCT015CB BKN042 15/14 Q1012 RERA WHT
7:55 pm
M
59 °F 3¾ mi 1.500 ft 270° 270° 15 - 27 kt METAR EHDL 301755Z AUTO 27015G27KT 180V350 6000 TSRA FEW007 BKN015CB BKN056 15/14 Q1012 WHT
7:25 pm
M
68 °F 6¼ mi+ 2.200 ft 300° 300° 13 kt METAR EHDL 301725Z AUTO 30013KT 240V010 9999 BKN022CB 20/14 Q1010 WHT
6:55 pm
M
70 °F 6¼ mi+ 2.700 ft 310° 310° 12 kt METAR EHDL 301655Z AUTO 31012KT 230V360 9999 BKN027 OVC031 21/15 Q1009 BLU
6:25 pm
V
73 °F 6¼ mi+ - 330° 330° 11 kt METAR EHDL 301625Z AUTO 33011KT 260V040 9999 FEW083 23/15 Q1009 BLU
5:55 pm
V
75 °F 6¼ mi+ 8.100 ft 340° 340° 12 kt METAR EHDL 301555Z AUTO 34012KT 280V030 9999 SCT035 SCT072 BKN081 24/15 Q1009 BLU
5:25 pm
V
77 °F 6¼ mi+ - 340° 340° 9 kt METAR EHDL 301525Z AUTO 34009KT 270V060 9999 SCT077 SCT083 25/16 Q1010 BLU
4:55 pm
V
77 °F 6¼ mi+ 5.000 ft 330° 330° 10 kt METAR EHDL 301455Z AUTO 33010KT 250V050 9999 SCT045 BKN050 25/15 Q1010 BLU
4:25 pm
V
75 °F 6¼ mi+ 5.000 ft 360° 360° 12 kt METAR EHDL 301425Z AUTO 36012KT 310V040 9999 SCT038 SCT042 BKN050 24/15 Q1010 BLU
3:55 pm
V
77 °F 6¼ mi+ 3.800 ft 340° 340° 10 kt METAR EHDL 301355Z AUTO 34010KT 280V030 9999 OVC038 25/16 Q1010 BLU
3:25 pm
V
79 °F 6¼ mi+ 14.000 ft 300° 300° 7 kt METAR EHDL 301325Z AUTO 30007KT 240V010 9999 FEW047 OVC140 26/15 Q1010 BLU
2:55 pm
V
79 °F 6¼ mi+ 15.000 ft Var Var 5 kt METAR EHDL 301255Z AUTO VRB05KT 9999 OVC150 26/15 Q1011 BLU
2:25 pm
V
79 °F 6¼ mi+ 18.000 ft Var Var 5 kt METAR EHDL 301225Z AUTO VRB05KT 9999 BKN180 OVC340 26/15 Q1011 BLU
1:55 pm
V
79 °F 6¼ mi+ 31.000 ft Var Var 7 kt METAR EHDL 301155Z AUTO VRB07KT 9999 FEW044 BKN310 26/15 Q1011 BLU
1:25 pm
V
79 °F 6¼ mi+ 32.000 ft 260° 260° 5 kt METAR EHDL 301125Z AUTO 26005KT 250V010 9999 OVC320 26/15 Q1011 BLU
12:55 pm
V
77 °F 6¼ mi+ 33.000 ft 260° 260° 7 kt METAR EHDL 301055Z AUTO 26007KT 190V360 9999 OVC330 25/15 Q1011 BLU
12:25 pm
V
77 °F 6¼ mi+ 32.000 ft Var Var 6 kt METAR EHDL 301025Z AUTO VRB06KT 9999 OVC320 25/16 Q1011 BLU
11:55 am
V
77 °F 6¼ mi+ 34.000 ft Var Var 6 kt METAR EHDL 300955Z AUTO VRB06KT 9999 OVC340 25/14 Q1011 BLU
11:25 am
V
77 °F 6¼ mi+ 34.000 ft 300° 300° 5 kt METAR EHDL 300925Z AUTO 30005KT 200V360 9999 BKN340 25/15 Q1011 BLU
10:55 am
V
75 °F 6¼ mi+ - Var Var 6 kt METAR EHDL 300855Z AUTO VRB06KT 9999 SCT340 24/16 Q1011 BLU
10:25 am
V
75 °F 6¼ mi+ 35.000 ft 230° 230° 9 kt METAR EHDL 300825Z AUTO 23009KT 170V300 9999 BKN350 24/14 Q1011 BLU
9:55 am
V
73 °F 6¼ mi+ - 250° 250° 5 kt METAR EHDL 300755Z AUTO 25005KT 160V300 9999 SCT350 23/16 Q1011 BLU
9:25 am
V
73 °F 6¼ mi+ - 220° 220° 6 kt METAR EHDL 300725Z AUTO 22006KT 120V280 9999 NCD 23/15 Q1011 BLU
Starsze dane

Pobierz naszą aplikację

Łatwy dostęp do całej pogody lotniczej na telefonie komórkowym i tablecie.
Z wieloma funkcjami niedostępnymi na stronie internetowej, takimi jak wsparcie offline i osobista lista lotnisk.

My i osoby trzecie śledzimy twoje zachowanie w internecie na naszej stronie za pomocą plików cookie. Jeśli kontynuujesz, zakładamy, że zgadzasz się z naszą polityką plików cookie. Dowiedz się więcej